SECA Airport Information

Runway Information
Airport Frequencies
Airport Navaids
Airport Weather Information & NOTAM
ADDS - METARS form results

(1433 UTC 27 February 2020)
Data provider http://aviationweather.gov/metar/data/
 
METAR text: SECA 271400Z 31002KT 9999 SCT030 SCT100 20/18 Q1021
Conditions at: SECA (CIUDAD DE CATAMY, EC) observed 1400 UTC 27 February 2020
Temperature: 20.0°C (68°F)
Dewpoint: 18.0°C (64°F) [RH = 88%]
Pressure (altimeter): 30.15 inches Hg (1021.0 mb)
Winds: from the NW (310 degrees) at 2 MPH (2 knots; 1.0 m/s)
Visibility: 6 or more miles (10+ km)
Ceiling: at least 12,000 feet AGL
Clouds: scattered clouds at 3000 feet AGL
scattered clouds at 10000 feet AGL
Weather: no significant weather observed at this time